createdAt,value
2022-10-12T00:03:04.890Z,102433.53
2022-10-12T00:08:07.087Z,102433.25
2022-10-12T00:13:09.532Z,102429.47
2022-10-12T00:18:11.667Z,102434.25
2022-10-12T00:23:14.740Z,102431.13
2022-10-12T00:28:16.647Z,102441.13
2022-10-12T00:33:19.605Z,102446.75
2022-10-12T00:38:22.475Z,102439.25
2022-10-12T00:43:30.671Z,102444.91
2022-10-12T00:48:33.129Z,102445.41
2022-10-12T00:53:40.906Z,102440.59
2022-10-12T00:58:42.451Z,102446.59
2022-10-12T01:03:44.714Z,102435.38
2022-10-12T01:08:48.241Z,102437.56
2022-10-12T01:13:50.108Z,102450.13
2022-10-12T01:19:01.110Z,102443.94
2022-10-12T01:24:24.876Z,102436.63
2022-10-12T01:30:04.362Z,102434.03
2022-10-12T01:35:34.650Z,102435.34
2022-10-12T01:40:42.215Z,102424.44
2022-10-12T01:45:44.253Z,102424.00
2022-10-12T01:50:52.372Z,102430.78
2022-10-12T01:56:20.279Z,102421.06
2022-10-12T02:01:40.086Z,102416.50
2022-10-12T02:06:48.088Z,102411.31
2022-10-12T02:11:54.903Z,102410.06
2022-10-12T02:17:00.700Z,102407.84
2022-10-12T02:22:06.063Z,102403.16
2022-10-12T02:27:10.661Z,102396.75
2022-10-12T02:32:29.941Z,102390.34
2022-10-12T02:37:45.126Z,102383.94
2022-10-12T02:48:23.404Z,102380.59
2022-10-12T02:53:28.361Z,102383.75
2022-10-12T02:58:30.362Z,102381.88
2022-10-12T03:03:32.109Z,102371.28
2022-10-12T03:08:33.900Z,102367.44
2022-10-12T03:13:35.698Z,102362.16
2022-10-12T03:18:38.374Z,102361.94
2022-10-12T03:23:40.038Z,102364.53
2022-10-12T03:28:41.904Z,102369.50
2022-10-12T03:33:43.867Z,102361.88
2022-10-12T03:38:46.418Z,102358.19
2022-10-12T03:43:48.233Z,102359.63
2022-10-12T03:48:49.830Z,102353.00
2022-10-12T03:53:51.707Z,102360.00
2022-10-12T03:58:54.448Z,102348.97
2022-10-12T04:03:56.137Z,102344.47
2022-10-12T04:08:57.839Z,102342.47
2022-10-12T04:13:59.730Z,102346.63
2022-10-12T04:19:01.463Z,102338.50
2022-10-12T04:24:03.287Z,102339.75
2022-10-12T04:29:05.325Z,102342.91
2022-10-12T04:34:07.347Z,102347.09
2022-10-12T04:39:09.316Z,102352.94
2022-10-12T04:44:11.178Z,102357.09
2022-10-12T04:49:12.933Z,102353.25
2022-10-12T04:54:14.722Z,102360.78
2022-10-12T04:59:16.353Z,102360.34
2022-10-12T05:04:18.206Z,102361.94
2022-10-12T05:09:20.233Z,102355.63
2022-10-12T05:14:22.072Z,102347.63
2022-10-12T05:19:24.355Z,102351.91
2022-10-12T05:24:26.248Z,102341.34
2022-10-12T05:29:28.415Z,102344.47
2022-10-12T05:34:30.285Z,102343.13
2022-10-12T05:39:32.352Z,102341.22
2022-10-12T05:44:33.998Z,102342.00
2022-10-12T05:49:36.741Z,102352.22
2022-10-12T05:54:39.225Z,102331.41
2022-10-12T05:59:42.428Z,102343.78
2022-10-12T06:04:44.173Z,102343.78
2022-10-12T06:09:47.656Z,102337.97
2022-10-12T06:14:49.848Z,102335.72
2022-10-12T06:19:51.640Z,102333.34
2022-10-12T06:24:53.578Z,102337.06
2022-10-12T06:29:55.254Z,102335.84
2022-10-12T06:34:56.890Z,102339.31
2022-10-12T06:39:58.881Z,102338.44
2022-10-12T06:45:00.853Z,102341.34
2022-10-12T06:50:02.702Z,102346.94
2022-10-12T06:55:05.579Z,102339.00
2022-10-12T07:00:08.210Z,102337.13
2022-10-12T07:05:09.936Z,102334.25
2022-10-12T07:10:11.679Z,102338.94
2022-10-12T07:15:13.614Z,102335.19
2022-10-12T07:20:16.098Z,102329.50
2022-10-12T07:25:17.834Z,102329.97
2022-10-12T07:30:19.601Z,102338.47
2022-10-12T07:35:21.462Z,102347.16
2022-10-12T07:40:23.406Z,102340.22
2022-10-12T07:45:28.656Z,102335.53
2022-10-12T07:50:30.927Z,102331.06
2022-10-12T07:55:32.998Z,102342.03
2022-10-12T08:00:34.781Z,102344.13
2022-10-12T08:05:38.109Z,102340.91
2022-10-12T08:10:39.997Z,102336.50
2022-10-12T08:15:42.099Z,102335.69
2022-10-12T08:20:44.453Z,102334.13
2022-10-12T08:25:57.467Z,102338.97
2022-10-12T08:31:00.890Z,102330.47
2022-10-12T08:36:04.785Z,102325.06
2022-10-12T08:41:45.693Z,102329.69
2022-10-12T08:46:48.203Z,102331.31
2022-10-12T08:51:57.850Z,102326.84
2022-10-12T08:56:59.731Z,102324.00
2022-10-12T09:02:34.750Z,102320.59
2022-10-12T09:07:50.899Z,102320.94
2022-10-12T09:13:09.545Z,102317.38
2022-10-12T09:18:30.745Z,102316.91
2022-10-12T09:23:38.591Z,102317.41
2022-10-12T09:28:43.837Z,102311.94
2022-10-12T09:34:08.996Z,102307.53
2022-10-12T09:39:19.100Z,102298.13
2022-10-12T09:44:40.371Z,102297.34
2022-10-12T09:49:44.728Z,102291.34
2022-10-12T09:54:53.309Z,102285.75
2022-10-12T09:59:55.696Z,102289.09
2022-10-12T10:05:22.158Z,102279.72
2022-10-12T10:10:30.080Z,102277.09
2022-10-12T10:15:34.810Z,102283.28
2022-10-12T10:20:50.770Z,102269.25
2022-10-12T10:25:56.516Z,102275.50
2022-10-12T10:31:04.339Z,102283.06
2022-10-12T10:36:18.227Z,102277.06
2022-10-12T10:41:20.472Z,102271.50
2022-10-12T10:46:25.780Z,102264.03
2022-10-12T10:52:04.280Z,102268.66
2022-10-12T10:57:09.776Z,102257.50
2022-10-12T11:02:21.692Z,102253.13
2022-10-12T11:07:23.460Z,102245.22
2022-10-12T11:12:35.675Z,102239.25
2022-10-12T11:17:47.172Z,102237.66
2022-10-12T11:23:01.470Z,102232.78
2022-10-12T11:28:02.928Z,102215.78
2022-10-12T11:33:27.593Z,102215.22
2022-10-12T11:38:33.769Z,102207.34
2022-10-12T11:44:04.741Z,102207.41
2022-10-12T11:49:19.326Z,102189.25
2022-10-12T11:54:31.460Z,102181.25
2022-10-12T11:59:41.777Z,102183.03
2022-10-12T12:04:46.190Z,102188.59
2022-10-12T12:09:50.580Z,102179.13
2022-10-12T12:14:55.372Z,102185.13
2022-10-12T12:20:02.664Z,102172.50
2022-10-12T12:25:13.093Z,102171.44
2022-10-12T12:30:17.527Z,102170.16
2022-10-12T12:35:21.664Z,102155.44
2022-10-12T12:40:23.997Z,102142.41
2022-10-12T12:45:32.145Z,102138.84
2022-10-12T12:50:38.145Z,102130.88
2022-10-12T12:56:05.424Z,102123.84
2022-10-12T13:01:22.820Z,102131.94
2022-10-12T13:06:57.055Z,102123.66
2022-10-12T13:12:13.739Z,102117.38
2022-10-12T13:17:49.207Z,102117.75
2022-10-12T13:22:54.815Z,102119.50
2022-10-12T13:27:58.306Z,102114.19
2022-10-12T13:33:09.707Z,102114.50
2022-10-12T13:38:15.058Z,102109.41
2022-10-12T13:43:22.621Z,102096.94
2022-10-12T13:48:46.320Z,102084.72
2022-10-12T13:53:47.055Z,102081.75
2022-10-12T13:58:51.843Z,102070.19
2022-10-12T14:04:04.356Z,102066.44
2022-10-12T14:09:09.496Z,102068.09
2022-10-12T14:14:34.391Z,102058.19
2022-10-12T14:19:45.071Z,102048.34
2022-10-12T14:24:47.096Z,102049.84
2022-10-12T14:30:03.733Z,102034.81
2022-10-12T14:35:22.095Z,102035.44
2022-10-12T14:40:31.368Z,102025.50
2022-10-12T14:45:33.555Z,102024.53
2022-10-12T14:50:35.455Z,102014.81
2022-10-12T14:55:37.268Z,102014.63
2022-10-12T15:00:39.436Z,102005.06
2022-10-12T15:05:40.918Z,102003.25
2022-10-12T15:10:42.881Z,101998.81
2022-10-12T15:15:47.050Z,101988.16
2022-10-12T15:20:49.797Z,101996.06
2022-10-12T15:25:54.058Z,101988.72
2022-10-12T15:31:17.081Z,101984.81
2022-10-12T15:36:19.603Z,101989.91
2022-10-12T15:41:25.189Z,101995.72
2022-10-12T15:46:27.458Z,101995.31
2022-10-12T15:51:29.022Z,101987.03
2022-10-12T15:56:30.859Z,101980.41
2022-10-12T16:01:34.700Z,101978.13
2022-10-12T16:06:36.211Z,101975.63
2022-10-12T16:11:37.900Z,101960.63
2022-10-12T16:16:39.602Z,101967.50
2022-10-12T16:21:41.179Z,101969.00
2022-10-12T16:26:45.105Z,101965.47
2022-10-12T16:31:46.833Z,101964.47
2022-10-12T16:36:50.065Z,101967.16
2022-10-12T16:41:51.559Z,101961.06
2022-10-12T16:46:53.071Z,101960.91
2022-10-12T16:51:54.767Z,101958.44
2022-10-12T16:56:57.511Z,101967.34
2022-10-12T17:01:59.062Z,101970.22
2022-10-12T17:07:00.511Z,101960.84
2022-10-12T17:12:02.007Z,101969.31
2022-10-12T17:17:04.025Z,101962.06
2022-10-12T17:22:06.884Z,101973.28
2022-10-12T17:27:10.107Z,101976.72
2022-10-12T17:32:12.203Z,101973.97
2022-10-12T17:37:15.478Z,101975.66
2022-10-12T17:42:17.824Z,101979.84
2022-10-12T17:47:19.936Z,101977.03
2022-10-12T17:52:21.708Z,101973.28
2022-10-12T17:57:23.429Z,101982.59
2022-10-12T18:02:24.947Z,101973.56
2022-10-12T18:07:26.447Z,101981.06
2022-10-12T18:12:27.915Z,101975.59
2022-10-12T18:17:29.538Z,101973.53
2022-10-12T18:22:31.006Z,101973.28
2022-10-12T18:27:34.117Z,101976.63
2022-10-12T18:32:36.075Z,101967.72
2022-10-12T18:37:37.742Z,101946.84
2022-10-12T18:42:39.214Z,101954.81
2022-10-12T18:47:40.705Z,101939.88
2022-10-12T18:52:42.353Z,101942.44
2022-10-12T18:57:44.072Z,101924.97
2022-10-12T19:02:45.628Z,101923.53
2022-10-12T19:07:47.121Z,101928.81
2022-10-12T19:12:48.811Z,101920.66
2022-10-12T19:17:50.270Z,101917.06
2022-10-12T19:22:51.764Z,101918.78
2022-10-12T19:27:53.228Z,101914.25
2022-10-12T19:32:54.750Z,101908.91
2022-10-12T19:37:56.848Z,101894.78
2022-10-12T19:42:58.484Z,101906.66
2022-10-12T19:47:59.975Z,101888.81
2022-10-12T19:53:02.047Z,101891.00
2022-10-12T19:58:03.564Z,101886.97
2022-10-12T20:03:05.168Z,101867.25
2022-10-12T20:08:06.691Z,101866.94
2022-10-12T20:13:08.200Z,101877.97
2022-10-12T20:18:10.087Z,101863.91
2022-10-12T20:23:11.546Z,101879.63
2022-10-12T20:28:14.300Z,101878.94
2022-10-12T20:33:16.216Z,101870.22
2022-10-12T20:38:18.235Z,101869.41
2022-10-12T20:43:19.750Z,101857.31
2022-10-12T20:48:21.643Z,101863.50
2022-10-12T20:53:23.157Z,101861.78
2022-10-12T20:58:27.916Z,101866.09
2022-10-12T21:03:29.791Z,101862.53
2022-10-12T21:08:31.683Z,101862.53
2022-10-12T21:13:34.833Z,101855.53
2022-10-12T21:18:38.356Z,101862.53
2022-10-12T21:23:41.879Z,101865.13
2022-10-12T21:28:44.504Z,101867.06
2022-10-12T21:33:46.965Z,101860.19
2022-10-12T21:38:49.388Z,101871.66
2022-10-12T21:43:52.544Z,101870.06
2022-10-12T21:48:54.706Z,101859.91
2022-10-12T21:53:56.699Z,101849.72
2022-10-12T21:59:01.582Z,101856.88
2022-10-12T22:04:11.520Z,101855.91
2022-10-12T22:09:16.765Z,101853.19
2022-10-12T22:14:19.225Z,101840.69
2022-10-12T22:19:21.555Z,101831.47
2022-10-12T22:24:23.652Z,101833.56
2022-10-12T22:29:26.147Z,101832.75
2022-10-12T22:34:28.256Z,101817.84
2022-10-12T22:39:29.797Z,101820.34
2022-10-12T22:44:31.378Z,101831.00
2022-10-12T22:49:32.826Z,101830.13
2022-10-12T22:54:34.461Z,101819.00
2022-10-12T22:59:36.464Z,101820.91
2022-10-12T23:04:37.963Z,101808.09
2022-10-12T23:09:41.194Z,101798.16
2022-10-12T23:14:42.693Z,101806.38
2022-10-12T23:19:44.309Z,101809.41
2022-10-12T23:24:46.909Z,101803.59
2022-10-12T23:29:48.622Z,101793.53
2022-10-12T23:34:50.420Z,101787.94
2022-10-12T23:39:52.403Z,101789.84
2022-10-12T23:44:53.911Z,101771.81
2022-10-12T23:49:55.680Z,101779.03
2022-10-12T23:54:57.384Z,101778.53
2022-10-12T23:59:59.212Z,101782.31
